createdAt,value
2023-09-24T00:01:02.164Z,13.90
2023-09-24T00:03:29.439Z,13.90
2023-09-24T00:05:59.767Z,13.90
2023-09-24T00:08:26.913Z,13.90
2023-09-24T00:10:54.422Z,13.90
2023-09-24T00:13:23.716Z,13.90
2023-09-24T00:15:52.403Z,13.90
2023-09-24T00:18:21.463Z,13.90
2023-09-24T00:20:51.514Z,13.90
2023-09-24T00:23:18.802Z,13.90
2023-09-24T00:25:46.053Z,13.90
2023-09-24T00:28:13.255Z,13.80
2023-09-24T00:30:42.868Z,13.80
2023-09-24T00:33:11.006Z,13.80
2023-09-24T00:35:38.245Z,13.80
2023-09-24T00:38:05.365Z,13.80
2023-09-24T00:40:32.472Z,13.80
2023-09-24T00:42:59.563Z,13.80
2023-09-24T00:45:27.324Z,13.80
2023-09-24T00:47:58.886Z,13.80
2023-09-24T00:50:34.577Z,13.90
2023-09-24T00:53:03.246Z,13.80
2023-09-24T00:55:32.103Z,13.90
2023-09-24T00:57:59.282Z,13.90
2023-09-24T01:00:29.767Z,13.90
2023-09-24T01:02:57.512Z,13.90
2023-09-24T01:05:25.189Z,13.90
2023-09-24T01:07:53.908Z,13.90
2023-09-24T01:10:25.726Z,13.90
2023-09-24T01:13:00.598Z,13.90
2023-09-24T01:15:28.769Z,13.80
2023-09-24T01:17:56.037Z,13.80
2023-09-24T01:20:26.608Z,13.80
2023-09-24T01:22:53.876Z,13.80
2023-09-24T01:25:21.079Z,13.80
2023-09-24T01:27:49.929Z,13.70
2023-09-24T01:30:17.306Z,13.70
2023-09-24T01:32:46.026Z,13.70
2023-09-24T01:35:13.397Z,13.60
2023-09-24T01:37:40.532Z,13.60
2023-09-24T01:40:20.455Z,13.60
2023-09-24T01:42:48.236Z,13.60
2023-09-24T01:45:18.100Z,13.60
2023-09-24T01:47:51.659Z,13.60
2023-09-24T01:50:19.512Z,13.60
2023-09-24T01:52:49.372Z,13.60
2023-09-24T01:55:17.100Z,13.60
2023-09-24T01:57:45.633Z,13.60
2023-09-24T02:00:24.846Z,13.60
2023-09-24T02:02:53.781Z,13.70
2023-09-24T02:05:21.382Z,13.60
2023-09-24T02:07:52.299Z,13.60
2023-09-24T02:10:21.237Z,13.60
2023-09-24T02:12:48.724Z,13.60
2023-09-24T02:15:21.026Z,13.50
2023-09-24T02:17:51.288Z,13.60
2023-09-24T02:20:24.057Z,13.50
2023-09-24T02:22:59.523Z,13.50
2023-09-24T02:25:31.249Z,13.60
2023-09-24T02:27:59.490Z,13.60
2023-09-24T02:30:31.799Z,13.60
2023-09-24T02:33:01.674Z,13.60
2023-09-24T02:35:29.271Z,13.60
2023-09-24T02:37:56.635Z,13.60
2023-09-24T02:40:30.148Z,13.60
2023-09-24T02:43:03.215Z,13.60
2023-09-24T02:45:31.166Z,13.60
2023-09-24T02:47:59.527Z,13.50
2023-09-24T02:50:30.309Z,13.50
2023-09-24T02:53:00.871Z,13.60
2023-09-24T02:55:30.963Z,13.50
2023-09-24T02:57:58.641Z,13.50
2023-09-24T03:00:28.838Z,13.50
2023-09-24T03:03:01.689Z,13.50
2023-09-24T03:05:31.101Z,13.60
2023-09-24T03:08:01.682Z,13.60
2023-09-24T03:10:31.534Z,13.50
2023-09-24T03:12:59.822Z,13.50
2023-09-24T03:15:27.970Z,13.60
2023-09-24T03:17:56.321Z,13.50
2023-09-24T03:20:24.958Z,13.50
2023-09-24T03:22:55.053Z,13.50
2023-09-24T03:25:24.280Z,13.50
2023-09-24T03:27:53.821Z,13.50
2023-09-24T03:30:21.977Z,13.50
2023-09-24T03:32:54.014Z,13.40
2023-09-24T03:35:25.809Z,13.40
2023-09-24T03:37:54.887Z,13.30
2023-09-24T03:40:24.752Z,13.40
2023-09-24T03:42:52.307Z,13.40
2023-09-24T03:45:20.857Z,13.40
2023-09-24T03:47:48.419Z,13.30
2023-09-24T03:50:18.723Z,13.30
2023-09-24T03:52:47.795Z,13.30
2023-09-24T03:55:17.683Z,13.30
2023-09-24T03:57:49.131Z,13.40
2023-09-24T04:00:18.072Z,13.40
2023-09-24T04:02:50.591Z,13.40
2023-09-24T04:05:21.123Z,13.40
2023-09-24T04:07:52.893Z,13.50
2023-09-24T04:10:21.818Z,13.50
2023-09-24T04:12:53.278Z,13.40
2023-09-24T04:15:23.857Z,13.50
2023-09-24T04:17:51.801Z,13.50
2023-09-24T04:20:22.293Z,13.50
2023-09-24T04:22:53.098Z,13.50
2023-09-24T04:25:25.075Z,13.50
2023-09-24T04:27:52.359Z,13.60
2023-09-24T04:30:20.700Z,13.60
2023-09-24T04:32:55.188Z,13.60
2023-09-24T04:35:23.242Z,13.70
2023-09-24T04:37:52.310Z,13.70
2023-09-24T04:40:20.269Z,13.80
2023-09-24T04:42:51.419Z,13.80
2023-09-24T04:45:19.380Z,13.90
2023-09-24T04:47:48.077Z,13.90
2023-09-24T04:50:15.710Z,13.90
2023-09-24T04:52:46.808Z,13.90
2023-09-24T04:55:15.101Z,14.00
2023-09-24T04:57:44.332Z,14.00
2023-09-24T05:00:12.396Z,14.00
2023-09-24T05:02:39.513Z,14.00
2023-09-24T05:05:07.351Z,14.00
2023-09-24T05:07:34.448Z,14.10
2023-09-24T05:10:01.655Z,14.10
2023-09-24T05:12:28.812Z,14.10
2023-09-24T05:14:55.927Z,14.10
2023-09-24T05:17:23.134Z,14.10
2023-09-24T05:19:50.216Z,14.10
2023-09-24T05:22:18.134Z,14.10
2023-09-24T05:24:48.488Z,14.10
2023-09-24T05:27:18.513Z,14.10
2023-09-24T05:29:49.970Z,14.20
2023-09-24T05:32:17.164Z,14.20
2023-09-24T05:34:44.845Z,14.20
2023-09-24T05:37:11.942Z,14.20
2023-09-24T05:39:39.054Z,14.30
2023-09-24T05:42:06.631Z,14.30
2023-09-24T05:44:34.414Z,14.30
2023-09-24T05:47:01.544Z,14.30
2023-09-24T05:49:28.702Z,14.30
2023-09-24T05:51:55.915Z,14.30
2023-09-24T05:54:23.050Z,14.30
2023-09-24T05:56:50.306Z,14.30
2023-09-24T05:59:20.659Z,14.30
2023-09-24T06:01:48.064Z,14.30
2023-09-24T06:04:15.709Z,14.40
2023-09-24T06:06:46.439Z,14.40
2023-09-24T06:09:17.376Z,14.40
2023-09-24T06:11:46.344Z,14.40
2023-09-24T06:14:13.495Z,14.50
2023-09-24T06:16:40.594Z,14.50
2023-09-24T06:19:07.823Z,14.50
2023-09-24T06:21:34.980Z,14.50
2023-09-24T06:24:02.199Z,14.50
2023-09-24T06:26:32.377Z,14.60
2023-09-24T06:29:10.216Z,14.60
2023-09-24T06:31:38.574Z,14.60
2023-09-24T06:34:05.774Z,14.60
2023-09-24T06:36:32.960Z,14.60
2023-09-24T06:39:01.343Z,14.70
2023-09-24T06:41:28.466Z,14.70
2023-09-24T06:43:55.534Z,14.70
2023-09-24T06:46:22.672Z,14.80
2023-09-24T06:48:50.571Z,14.80
2023-09-24T06:51:17.653Z,14.90
2023-09-24T06:53:45.996Z,14.90
2023-09-24T06:56:13.064Z,15.00
2023-09-24T06:58:40.052Z,15.10
2023-09-24T07:01:07.807Z,15.10
2023-09-24T07:03:35.100Z,15.10
2023-09-24T07:06:06.744Z,15.10
2023-09-24T07:08:37.257Z,15.20
2023-09-24T07:11:40.320Z,15.20
2023-09-24T07:14:07.484Z,15.30
2023-09-24T07:16:36.151Z,15.30
2023-09-24T07:19:03.858Z,15.40
2023-09-24T07:21:35.854Z,15.40
2023-09-24T07:24:05.600Z,15.30
2023-09-24T07:26:33.400Z,15.40
2023-09-24T07:29:03.738Z,15.40
2023-09-24T07:31:32.032Z,15.50
2023-09-24T07:34:01.628Z,15.50
2023-09-24T07:36:36.577Z,15.50
2023-09-24T07:39:10.221Z,15.50
2023-09-24T07:41:37.517Z,15.50
2023-09-24T07:44:05.142Z,15.60
2023-09-24T07:46:32.317Z,15.60
2023-09-24T07:49:00.364Z,15.70
2023-09-24T07:51:27.593Z,15.70
2023-09-24T07:53:54.654Z,15.70
2023-09-24T07:56:21.899Z,15.70
2023-09-24T07:58:48.962Z,15.70
2023-09-24T08:01:16.582Z,15.70
2023-09-24T08:03:47.238Z,15.70
2023-09-24T08:06:15.474Z,15.70
2023-09-24T08:11:12.759Z,15.70
2023-09-24T08:13:39.841Z,15.70
2023-09-24T08:16:07.205Z,15.70
2023-09-24T08:18:34.515Z,15.80
2023-09-24T08:21:01.724Z,15.70
2023-09-24T08:23:28.846Z,15.80
2023-09-24T08:25:55.922Z,15.80
2023-09-24T08:28:23.064Z,15.90
2023-09-24T08:30:50.164Z,15.90
2023-09-24T08:33:17.278Z,16.00
2023-09-24T08:35:44.975Z,16.00
2023-09-24T08:38:12.265Z,16.10
2023-09-24T08:40:41.727Z,16.30
2023-09-24T08:43:20.510Z,16.30
2023-09-24T08:45:49.581Z,16.40
2023-09-24T08:48:18.007Z,16.40
2023-09-24T08:50:45.291Z,16.40
2023-09-24T08:53:14.480Z,16.50
2023-09-24T08:55:45.401Z,16.50
2023-09-24T08:58:12.597Z,16.50
2023-09-24T09:00:40.708Z,16.40
2023-09-24T09:03:08.042Z,16.50
2023-09-24T09:05:39.123Z,16.50
2023-09-24T09:08:06.888Z,16.50
2023-09-24T09:10:35.909Z,16.50
2023-09-24T09:13:12.637Z,16.50
2023-09-24T09:15:41.563Z,16.60
2023-09-24T09:18:23.096Z,16.60
2023-09-24T09:20:51.882Z,16.60
2023-09-24T09:23:46.319Z,16.60
2023-09-24T09:26:13.460Z,16.60
2023-09-24T09:28:40.592Z,16.60
2023-09-24T09:31:13.858Z,16.60
2023-09-24T09:33:46.045Z,16.60
2023-09-24T09:36:31.817Z,16.60
2023-09-24T09:38:59.969Z,16.70
2023-09-24T09:41:28.165Z,16.60
2023-09-24T09:43:55.791Z,16.70
2023-09-24T09:46:24.731Z,16.70
2023-09-24T09:49:00.862Z,16.70
2023-09-24T09:51:33.955Z,16.70
2023-09-24T09:54:10.562Z,16.70
2023-09-24T09:56:38.257Z,16.70
2023-09-24T09:59:06.319Z,16.70
2023-09-24T10:01:34.434Z,16.70
2023-09-24T10:04:04.711Z,16.70
2023-09-24T10:06:36.837Z,16.80
2023-09-24T10:09:24.188Z,16.80
2023-09-24T10:11:52.416Z,16.80
2023-09-24T10:14:32.382Z,16.90
2023-09-24T10:17:25.273Z,16.90
2023-09-24T10:19:59.574Z,16.90
2023-09-24T10:22:29.328Z,16.90
2023-09-24T10:24:57.559Z,17.00
2023-09-24T10:27:34.660Z,17.00
2023-09-24T10:30:03.178Z,17.00
2023-09-24T10:32:30.978Z,17.00
2023-09-24T10:35:04.146Z,17.00
2023-09-24T10:37:35.371Z,17.10
2023-09-24T10:40:14.347Z,17.10
2023-09-24T10:42:44.040Z,17.10
2023-09-24T10:45:12.283Z,17.10
2023-09-24T10:47:42.503Z,17.10
2023-09-24T10:50:15.206Z,17.20
2023-09-24T10:52:52.923Z,17.20
2023-09-24T10:55:31.991Z,17.20
2023-09-24T10:58:04.181Z,17.30
2023-09-24T11:00:33.567Z,17.30
2023-09-24T11:03:06.248Z,17.30
2023-09-24T11:05:45.774Z,17.30
2023-09-24T11:08:15.009Z,17.30
2023-09-24T11:10:42.525Z,17.40
2023-09-24T11:13:10.742Z,17.40
2023-09-24T11:15:40.046Z,17.40
2023-09-24T11:18:08.237Z,17.40
2023-09-24T11:20:36.588Z,17.40
2023-09-24T11:23:10.288Z,17.40
2023-09-24T11:25:38.982Z,17.40
2023-09-24T11:28:07.870Z,17.40
2023-09-24T11:30:52.244Z,17.40
2023-09-24T11:33:23.563Z,17.50
2023-09-24T11:35:55.441Z,17.50
2023-09-24T11:38:37.556Z,17.50
2023-09-24T11:41:12.566Z,17.60
2023-09-24T11:43:41.464Z,17.60
2023-09-24T11:46:30.368Z,17.50
2023-09-24T11:49:00.843Z,17.60
2023-09-24T11:51:29.947Z,17.50
2023-09-24T11:53:57.516Z,17.50
2023-09-24T11:56:24.951Z,17.60
2023-09-24T11:58:52.429Z,17.60
2023-09-24T12:01:19.799Z,17.60
2023-09-24T12:03:47.826Z,17.70
2023-09-24T12:06:15.404Z,17.70
2023-09-24T12:08:44.504Z,17.70
2023-09-24T12:11:12.073Z,17.70
2023-09-24T12:13:39.300Z,17.70
2023-09-24T12:16:06.672Z,17.70
2023-09-24T12:18:34.404Z,17.70
2023-09-24T12:21:01.689Z,17.70
2023-09-24T12:23:28.931Z,17.70
2023-09-24T12:25:56.536Z,17.80
2023-09-24T12:28:23.812Z,17.80
2023-09-24T12:30:51.813Z,17.80
2023-09-24T12:33:19.704Z,17.80
2023-09-24T12:35:47.311Z,17.80
2023-09-24T12:38:15.126Z,17.80
2023-09-24T12:40:43.037Z,17.90
2023-09-24T12:43:10.554Z,18.00
2023-09-24T12:45:38.650Z,18.10
2023-09-24T12:48:06.306Z,18.20
2023-09-24T12:50:35.958Z,18.30
2023-09-24T12:53:03.908Z,18.40
2023-09-24T12:55:31.469Z,18.50
2023-09-24T12:57:58.552Z,18.60
2023-09-24T13:00:25.999Z,18.70
2023-09-24T13:02:53.714Z,18.70
2023-09-24T13:05:23.253Z,18.70
2023-09-24T13:07:50.987Z,18.60
2023-09-24T13:10:18.566Z,18.60
2023-09-24T13:12:46.835Z,18.70
2023-09-24T13:15:16.133Z,18.60
2023-09-24T13:17:43.942Z,18.70
2023-09-24T13:20:12.944Z,18.70
2023-09-24T13:22:40.994Z,18.80
2023-09-24T13:25:10.088Z,18.90
2023-09-24T13:27:39.295Z,18.90
2023-09-24T13:30:10.089Z,18.90
2023-09-24T13:32:40.466Z,19.10
2023-09-24T13:35:09.224Z,19.20
2023-09-24T13:37:39.766Z,19.30
2023-09-24T13:40:26.604Z,19.40
2023-09-24T13:43:00.515Z,19.40
2023-09-24T13:45:28.239Z,19.50
2023-09-24T13:47:57.388Z,19.60
2023-09-24T13:50:25.407Z,19.60
2023-09-24T13:52:53.446Z,19.60
2023-09-24T13:55:21.572Z,19.70
2023-09-24T13:57:49.528Z,19.70
2023-09-24T14:00:17.997Z,19.70
2023-09-24T14:02:46.905Z,19.60
2023-09-24T14:05:15.255Z,19.60
2023-09-24T14:07:42.926Z,19.50
2023-09-24T14:10:29.375Z,19.40
2023-09-24T14:12:56.926Z,19.30
2023-09-24T14:15:30.668Z,19.30
2023-09-24T14:18:13.443Z,19.40
2023-09-24T14:20:43.700Z,19.40
2023-09-24T14:23:12.945Z,19.50
2023-09-24T14:25:42.732Z,19.50
2023-09-24T14:28:10.804Z,19.50
2023-09-24T14:30:39.968Z,19.50
2023-09-24T14:33:09.427Z,19.50
2023-09-24T14:35:37.681Z,19.50
2023-09-24T14:38:06.224Z,19.30
2023-09-24T14:40:38.530Z,19.30
2023-09-24T14:43:06.826Z,19.30
2023-09-24T14:45:34.555Z,19.20
2023-09-24T14:48:02.420Z,19.20
2023-09-24T14:50:30.195Z,19.30
2023-09-24T14:52:57.849Z,19.30
2023-09-24T14:55:25.772Z,19.20
2023-09-24T14:57:55.640Z,19.10
2023-09-24T15:00:25.139Z,19.10
2023-09-24T15:02:57.270Z,19.10
2023-09-24T15:05:25.792Z,19.00
2023-09-24T15:07:54.430Z,18.90
2023-09-24T15:10:24.368Z,18.90
2023-09-24T15:12:53.891Z,18.90
2023-09-24T15:15:23.247Z,18.90
2023-09-24T15:17:52.132Z,18.90
2023-09-24T15:20:22.496Z,18.80
2023-09-24T15:22:50.523Z,18.80
2023-09-24T15:25:18.137Z,18.80
2023-09-24T15:27:47.549Z,18.80
2023-09-24T15:30:16.144Z,18.80
2023-09-24T15:32:44.068Z,18.80
2023-09-24T15:35:12.693Z,18.80
2023-09-24T15:37:42.806Z,18.80
2023-09-24T15:40:12.423Z,18.80
2023-09-24T15:42:40.587Z,18.80
2023-09-24T15:45:12.609Z,18.70
2023-09-24T15:47:41.683Z,18.70
2023-09-24T15:50:11.866Z,18.60
2023-09-24T15:52:41.665Z,18.50
2023-09-24T15:55:10.927Z,18.50
2023-09-24T15:57:39.520Z,18.50
2023-09-24T16:00:10.204Z,18.50
2023-09-24T16:02:42.466Z,18.50
2023-09-24T16:05:12.375Z,18.40
2023-09-24T16:07:40.905Z,18.40
2023-09-24T16:10:10.860Z,18.40
2023-09-24T16:12:39.142Z,18.40
2023-09-24T16:15:09.030Z,18.40
2023-09-24T16:17:39.560Z,18.40
2023-09-24T16:20:10.607Z,18.40
2023-09-24T16:22:38.494Z,18.40
2023-09-24T16:25:07.451Z,18.30
2023-09-24T16:27:34.824Z,18.30
2023-09-24T16:30:02.640Z,18.30
2023-09-24T16:32:31.084Z,18.30
2023-09-24T16:34:58.784Z,18.20
2023-09-24T16:37:26.919Z,18.20
2023-09-24T16:39:55.242Z,18.20
2023-09-24T16:42:23.395Z,18.20
2023-09-24T16:44:51.601Z,18.10
2023-09-24T16:47:19.448Z,18.10
2023-09-24T16:49:47.392Z,18.10
2023-09-24T16:52:15.512Z,18.10
2023-09-24T16:54:43.108Z,18.10
2023-09-24T16:57:11.474Z,18.10
2023-09-24T16:59:39.738Z,18.00
2023-09-24T17:02:09.572Z,18.00
2023-09-24T17:04:38.469Z,18.00
2023-09-24T17:07:07.275Z,18.00
2023-09-24T17:09:35.320Z,18.00
2023-09-24T17:12:04.283Z,18.00
2023-09-24T17:14:32.649Z,18.00
2023-09-24T17:17:03.925Z,17.90
2023-09-24T17:19:34.891Z,18.00
2023-09-24T17:22:02.479Z,17.90
2023-09-24T17:24:34.735Z,17.90
2023-09-24T17:27:03.204Z,17.90
2023-09-24T17:29:31.525Z,17.90
2023-09-24T17:32:00.155Z,17.90
2023-09-24T17:34:29.023Z,17.90
2023-09-24T17:36:59.634Z,17.80
2023-09-24T17:39:33.156Z,17.80
2023-09-24T17:42:01.622Z,17.80
2023-09-24T17:44:29.906Z,17.80
2023-09-24T17:46:58.608Z,17.80
2023-09-24T17:49:27.186Z,17.80
2023-09-24T17:51:57.370Z,17.80
2023-09-24T17:54:27.771Z,17.80
2023-09-24T17:56:56.444Z,17.80
2023-09-24T17:59:26.191Z,17.80
2023-09-24T18:01:56.794Z,17.80
2023-09-24T18:04:29.687Z,17.80
2023-09-24T18:07:00.369Z,17.80
2023-09-24T18:09:32.940Z,17.80
2023-09-24T18:12:03.984Z,17.80
2023-09-24T18:14:36.981Z,17.80
2023-09-24T18:17:08.736Z,17.80
2023-09-24T18:19:39.526Z,17.70
2023-09-24T18:22:10.427Z,17.70
2023-09-24T18:24:42.342Z,17.80
2023-09-24T18:27:12.232Z,17.70
2023-09-24T18:29:41.052Z,17.70
2023-09-24T18:32:09.576Z,17.70
2023-09-24T18:34:37.878Z,17.70
2023-09-24T18:37:10.358Z,17.70
2023-09-24T18:39:38.797Z,17.70
2023-09-24T18:42:09.851Z,17.70
2023-09-24T18:44:38.213Z,17.70
2023-09-24T18:47:09.164Z,17.70
2023-09-24T18:49:38.785Z,17.70
2023-09-24T18:52:08.273Z,17.70
2023-09-24T18:54:41.834Z,17.60
2023-09-24T18:57:11.955Z,17.60
2023-09-24T18:59:41.716Z,17.60
2023-09-24T19:02:09.831Z,17.60
2023-09-24T19:04:37.971Z,17.60
2023-09-24T19:07:12.041Z,17.60
2023-09-24T19:09:43.310Z,17.60
2023-09-24T19:12:12.783Z,17.70
2023-09-24T19:14:40.718Z,17.60
2023-09-24T19:17:09.178Z,17.70
2023-09-24T19:19:38.192Z,17.60
2023-09-24T19:22:08.671Z,17.60
2023-09-24T19:24:36.866Z,17.60
2023-09-24T19:27:05.186Z,17.60
2023-09-24T19:29:34.163Z,17.60
2023-09-24T19:32:02.521Z,17.60
2023-09-24T19:34:30.852Z,17.60
2023-09-24T19:37:01.192Z,17.60
2023-09-24T19:39:29.342Z,17.60
2023-09-24T19:41:57.784Z,17.50
2023-09-24T19:44:28.276Z,17.50
2023-09-24T19:46:56.930Z,17.50
2023-09-24T19:49:26.269Z,17.50
2023-09-24T19:51:54.227Z,17.50
2023-09-24T19:54:23.631Z,17.50
2023-09-24T19:56:51.803Z,17.50
2023-09-24T19:59:20.509Z,17.50
2023-09-24T20:01:48.846Z,17.50
2023-09-24T20:04:16.489Z,17.50
2023-09-24T20:06:44.471Z,17.50
2023-09-24T20:09:19.774Z,17.50
2023-09-24T20:11:47.964Z,17.50
2023-09-24T20:14:16.348Z,17.50
2023-09-24T20:16:44.203Z,17.50
2023-09-24T20:19:12.280Z,17.50
2023-09-24T20:21:40.196Z,17.50
2023-09-24T20:24:11.721Z,17.40
2023-09-24T20:26:46.732Z,17.40
2023-09-24T20:29:14.380Z,17.40
2023-09-24T20:31:43.270Z,17.40
2023-09-24T20:34:11.458Z,17.40
2023-09-24T20:36:39.333Z,17.40
2023-09-24T20:39:10.080Z,17.40
2023-09-24T20:41:38.382Z,17.40
2023-09-24T20:44:07.027Z,17.40
2023-09-24T20:46:38.192Z,17.40
2023-09-24T20:49:06.054Z,17.40
2023-09-24T20:51:33.868Z,17.40
2023-09-24T20:54:01.417Z,17.40
2023-09-24T20:56:30.695Z,17.40
2023-09-24T20:59:10.772Z,17.30
2023-09-24T21:01:37.834Z,17.30
2023-09-24T21:04:05.244Z,17.30
2023-09-24T21:06:32.304Z,17.30
2023-09-24T21:08:59.483Z,17.30
2023-09-24T21:11:26.559Z,17.30
2023-09-24T21:13:54.316Z,17.30
2023-09-24T21:16:21.910Z,17.30
2023-09-24T21:18:49.392Z,17.30
2023-09-24T21:21:16.915Z,17.20
2023-09-24T21:23:43.990Z,17.20
2023-09-24T21:26:11.090Z,17.20
2023-09-24T21:28:38.187Z,17.20
2023-09-24T21:31:07.344Z,17.20
2023-09-24T21:33:36.062Z,17.20
2023-09-24T21:36:04.057Z,17.20
2023-09-24T21:38:31.228Z,17.20
2023-09-24T21:40:58.504Z,17.20
2023-09-24T21:43:31.500Z,17.20
2023-09-24T21:46:04.530Z,17.20
2023-09-24T21:48:34.156Z,17.20
2023-09-24T21:51:01.607Z,17.20
2023-09-24T21:53:28.964Z,17.10
2023-09-24T21:55:56.003Z,17.10
2023-09-24T21:58:23.288Z,17.10
2023-09-24T22:00:50.333Z,17.10
2023-09-24T22:03:19.450Z,17.10
2023-09-24T22:05:46.967Z,17.10
2023-09-24T22:08:14.285Z,17.10
2023-09-24T22:10:41.620Z,17.10
2023-09-24T22:13:08.709Z,17.10
2023-09-24T22:15:36.035Z,17.10
2023-09-24T22:18:04.078Z,17.00
2023-09-24T22:20:31.493Z,17.00
2023-09-24T22:22:58.618Z,17.00
2023-09-24T22:25:25.652Z,17.10
2023-09-24T22:27:53.854Z,17.00
2023-09-24T22:30:20.941Z,17.00
2023-09-24T22:32:48.187Z,17.00
2023-09-24T22:35:17.131Z,17.00
2023-09-24T22:37:48.366Z,17.00
2023-09-24T22:40:16.851Z,17.00
2023-09-24T22:42:45.860Z,17.00
2023-09-24T22:45:16.523Z,17.00
2023-09-24T22:47:45.131Z,17.00
2023-09-24T22:50:12.492Z,17.00
2023-09-24T22:52:41.944Z,17.00
2023-09-24T22:55:09.522Z,17.00
2023-09-24T22:57:37.399Z,16.90
2023-09-24T23:00:13.861Z,16.90
2023-09-24T23:02:42.298Z,16.90
2023-09-24T23:05:10.160Z,16.90
2023-09-24T23:07:37.257Z,16.90
2023-09-24T23:10:04.671Z,16.90
2023-09-24T23:12:31.956Z,16.80
2023-09-24T23:14:59.184Z,16.80
2023-09-24T23:17:26.414Z,16.80
2023-09-24T23:19:53.667Z,16.80
2023-09-24T23:22:20.725Z,16.80
2023-09-24T23:24:47.860Z,16.80
2023-09-24T23:27:14.969Z,16.80
2023-09-24T23:29:42.257Z,16.80
2023-09-24T23:32:09.324Z,16.80
2023-09-24T23:34:39.059Z,16.70
2023-09-24T23:37:07.658Z,16.70
2023-09-24T23:39:34.895Z,16.70
2023-09-24T23:42:05.153Z,16.70
2023-09-24T23:44:32.978Z,16.80
2023-09-24T23:47:00.101Z,16.80
2023-09-24T23:49:27.245Z,16.80
2023-09-24T23:51:55.453Z,16.80
2023-09-24T23:54:22.825Z,16.80
2023-09-24T23:56:50.139Z,16.80
2023-09-24T23:59:17.177Z,16.80
